Time;durP1;ratioP1;P1;durP2;ratioP2;P2;SDS_P1;SDS_P2;PMS_P1;PMS_P2;Temp;Humidity;BMP_temperature;BMP_pressure;BME280_temperature;BME280_humidity;BME280_pressure;Samples;Min_cycle;Max_cycle;Signal;HPM_P1;HPM_P2
2024/01/18 00:01:12;;;;;;;;;21.33;20.00;;;;;;;;5038847;28;46316;-84
2024/01/18 00:03:38;;;;;;;;;21.67;21.33;;;;;;;;5028987;28;45378;-84
2024/01/18 00:06:04;;;;;;;;;23.75;21.75;;;;;;;;5026238;28;45301;-84
2024/01/18 00:08:29;;;;;;;;;25.25;22.00;;;;;;;;5039166;28;45171;-84
2024/01/18 00:10:54;;;;;;;;;21.67;19.33;;;;;;;;5021909;28;47109;-84
2024/01/18 00:13:20;;;;;;;;;23.67;16.67;;;;;;;;5034515;28;45243;-84
2024/01/18 00:15:45;;;;;;;;;28.67;19.33;;;;;;;;5045764;28;45322;-84
2024/01/18 00:18:11;;;;;;;;;21.00;17.00;;;;;;;;5020787;28;45515;-84
2024/01/18 00:20:36;;;;;;;;;26.50;21.50;;;;;;;;5037851;28;45356;-84
2024/01/18 00:23:01;;;;;;;;;29.00;20.67;;;;;;;;5052314;28;45202;-84
2024/01/18 00:25:26;;;;;;;;;19.33;17.33;;;;;;;;5050139;28;45251;-84
2024/01/18 00:27:51;;;;;;;;;17.67;17.33;;;;;;;;5023025;28;45690;-84
2024/01/18 00:30:18;;;;;;;;;21.33;20.33;;;;;;;;5038376;28;46308;-84
2024/01/18 00:32:43;;;;;;;;;23.50;19.75;;;;;;;;5057557;28;45362;-84
2024/01/18 00:35:08;;;;;;;;;23.00;20.00;;;;;;;;5045812;28;45185;-84
2024/01/18 00:37:33;;;;;;;;;19.67;18.00;;;;;;;;5041012;28;45445;-84
2024/01/18 00:39:59;;;;;;;;;18.00;16.67;;;;;;;;5038070;28;45525;-84
2024/01/18 00:42:24;;;;;;;;;18.00;16.00;;;;;;;;5043801;28;45291;-83
2024/01/18 00:44:49;;;;;;;;;17.67;17.00;;;;;;;;5045690;28;45330;-84
2024/01/18 00:47:14;;;;;;;;;18.33;16.00;;;;;;;;5024261;28;45549;-84
2024/01/18 00:49:40;;;;;;;;;16.33;15.33;;;;;;;;5025384;28;48009;-84
2024/01/18 00:52:05;;;;;;;;;20.00;16.25;;;;;;;;5029580;28;45252;-84
2024/01/18 00:54:30;;;;;;;;;15.50;12.50;;;;;;;;5035905;28;45933;-84
2024/01/18 00:56:55;;;;;;;;;21.00;16.00;;;;;;;;5022417;28;45425;-84
2024/01/18 00:59:21;;;;;;;;;18.00;13.00;;;;;;;;5047658;28;46072;-84
2024/01/18 01:01:46;;;;;;;;;16.00;12.67;;;;;;;;5024062;28;45208;-84
2024/01/18 01:04:11;;;;;;;;;14.00;14.00;;;;;;;;5023144;28;45261;-84
2024/01/18 01:06:36;;;;;;;;;17.67;12.67;;;;;;;;5047020;28;45282;-84
2024/01/18 01:09:02;;;;;;;;;19.67;15.33;;;;;;;;5049616;28;46235;-84
2024/01/18 01:11:27;;;;;;;;;16.50;13.50;;;;;;;;5040975;28;45192;-83
2024/01/18 01:13:52;;;;;;;;;13.33;9.00;;;;;;;;5050992;28;45606;-83
2024/01/18 01:16:17;;;;;;;;;16.00;15.00;;;;;;;;5059211;28;45396;-83
2024/01/18 01:18:42;;;;;;;;;12.67;12.00;;;;;;;;5033041;28;47189;-83
2024/01/18 01:21:08;;;;;;;;;20.00;16.67;;;;;;;;5023161;28;45426;-83
2024/01/18 01:23:38;;;;;;;;;17.00;13.00;;;;;;;;5041858;28;45300;-84
2024/01/18 01:26:03;;;;;;;;;17.50;16.25;;;;;;;;5026675;28;45456;-84
2024/01/18 01:28:28;;;;;;;;;16.00;16.00;;;;;;;;5032213;28;47038;-84
2024/01/18 01:30:54;;;;;;;;;13.00;12.67;;;;;;;;5040953;28;45532;-84
2024/01/18 01:33:19;;;;;;;;;22.33;17.33;;;;;;;;5052570;28;45404;-84
2024/01/18 01:35:44;;;;;;;;;18.33;15.00;;;;;;;;5031615;28;45323;-83
2024/01/18 01:38:09;;;;;;;;;21.33;16.67;;;;;;;;5034309;28;47182;-84
2024/01/18 01:40:34;;;;;;;;;15.67;14.67;;;;;;;;5056449;28;45632;-83
2024/01/18 01:43:00;;;;;;;;;17.67;16.00;;;;;;;;5041305;28;45326;-84
2024/01/18 01:45:25;;;;;;;;;16.67;15.00;;;;;;;;5021806;28;45615;-83
2024/01/18 01:47:53;;;;;;;;;19.67;16.00;;;;;;;;5050681;28;45311;-83
2024/01/18 01:50:18;;;;;;;;;16.00;14.25;;;;;;;;5042730;28;46056;-84
2024/01/18 01:52:44;;;;;;;;;18.00;17.00;;;;;;;;5055230;28;45299;-83
2024/01/18 01:55:12;;;;;;;;;21.25;16.00;;;;;;;;5041072;28;45257;-83
2024/01/18 01:57:37;;;;;;;;;20.25;17.25;;;;;;;;5034302;28;48204;-84
2024/01/18 02:00:03;;;;;;;;;22.50;20.50;;;;;;;;5042563;28;45303;-84
2024/01/18 02:02:29;;;;;;;;;19.25;14.75;;;;;;;;5050941;28;45462;-84
2024/01/18 02:04:54;;;;;;;;;17.50;17.50;;;;;;;;5044678;28;45359;-84
2024/01/18 02:07:20;;;;;;;;;17.00;16.25;;;;;;;;5051387;28;45417;-84
2024/01/18 02:09:46;;;;;;;;;19.75;15.50;;;;;;;;5022515;28;45590;-83
2024/01/18 02:12:12;;;;;;;;;22.00;17.25;;;;;;;;5033375;28;45374;-83
2024/01/18 02:14:37;;;;;;;;;17.75;15.25;;;;;;;;5034902;28;45406;-84
2024/01/18 02:17:04;;;;;;;;;17.75;14.75;;;;;;;;5040667;28;45417;-83
2024/01/18 02:19:29;;;;;;;;;19.50;15.75;;;;;;;;5022788;28;45883;-83
2024/01/18 02:21:54;;;;;;;;;23.50;17.00;;;;;;;;5033379;28;45393;-83
2024/01/18 02:24:21;;;;;;;;;18.33;17.67;;;;;;;;5040546;28;45348;-84
2024/01/18 02:26:46;;;;;;;;;20.00;17.75;;;;;;;;5032990;28;48075;-84
2024/01/18 02:29:11;;;;;;;;;16.67;16.67;;;;;;;;5025257;28;45411;-83
2024/01/18 02:31:37;;;;;;;;;24.00;20.00;;;;;;;;5022793;28;45446;-83
2024/01/18 02:34:08;;;;;;;;;16.00;16.00;;;;;;;;5039338;28;45444;-83
2024/01/18 02:36:34;;;;;;;;;18.50;18.50;;;;;;;;5021418;28;46093;-84
2024/01/18 02:38:59;;;;;;;;;16.50;13.75;;;;;;;;5040297;28;45385;-84
2024/01/18 02:41:24;;;;;;;;;23.33;21.33;;;;;;;;5042145;28;45315;-83
2024/01/18 02:43:50;;;;;;;;;18.50;16.75;;;;;;;;5053571;28;45303;-84
2024/01/18 02:46:16;;;;;;;;;19.00;14.00;;;;;;;;5021898;28;47981;-83
2024/01/18 02:48:42;;;;;;;;;24.25;15.75;;;;;;;;5027962;28;45698;-83
2024/01/18 02:51:07;;;;;;;;;18.50;13.00;;;;;;;;5031438;28;45415;-83
2024/01/18 02:53:32;;;;;;;;;18.33;15.67;;;;;;;;5040156;28;45263;-83
2024/01/18 02:55:57;;;;;;;;;19.33;18.67;;;;;;;;5039046;28;45193;-83
2024/01/18 02:58:22;;;;;;;;;18.33;16.33;;;;;;;;5044906;28;45531;-83
2024/01/18 03:00:48;;;;;;;;;19.33;16.00;;;;;;;;5055709;28;45453;-84
2024/01/18 03:03:14;;;;;;;;;15.33;9.33;;;;;;;;5050499;28;45246;-83
2024/01/18 03:05:40;;;;;;;;;15.00;12.75;;;;;;;;5039467;28;45433;-83
2024/01/18 03:08:05;;;;;;;;;15.00;14.00;;;;;;;;5039213;28;45509;-84
2024/01/18 03:10:30;;;;;;;;;12.25;12.25;;;;;;;;5022023;28;45371;-83
2024/01/18 03:12:56;;;;;;;;;16.67;13.00;;;;;;;;5055040;28;45314;-84
2024/01/18 03:15:21;;;;;;;;;10.50;10.25;;;;;;;;5034848;28;47136;-83
2024/01/18 03:17:47;;;;;;;;;15.00;12.33;;;;;;;;5039566;28;45506;-83
2024/01/18 03:20:12;;;;;;;;;17.33;15.67;;;;;;;;5042815;28;45323;-84
2024/01/18 03:22:40;;;;;;;;;16.00;13.67;;;;;;;;5022895;28;45402;-84
2024/01/18 03:25:06;;;;;;;;;13.75;10.00;;;;;;;;5041703;28;46337;-84
2024/01/18 03:27:31;;;;;;;;;17.25;14.50;;;;;;;;5045910;28;45152;-84
2024/01/18 03:29:56;;;;;;;;;15.00;12.00;;;;;;;;5043410;28;45243;-84
2024/01/18 03:32:22;;;;;;;;;15.67;13.67;;;;;;;;5039932;28;45231;-84
2024/01/18 03:34:47;;;;;;;;;11.75;11.75;;;;;;;;5031465;28;47161;-84
2024/01/18 03:37:12;;;;;;;;;13.00;9.00;;;;;;;;5047423;28;45216;-84
2024/01/18 03:39:37;;;;;;;;;12.00;10.33;;;;;;;;5059460;28;45246;-84
2024/01/18 03:42:03;;;;;;;;;12.00;8.00;;;;;;;;5044972;28;45462;-84
2024/01/18 03:44:28;;;;;;;;;10.25;9.00;;;;;;;;5024248;28;48147;-84
2024/01/18 03:46:53;;;;;;;;;11.00;11.00;;;;;;;;5037907;28;45347;-84
2024/01/18 03:49:19;;;;;;;;;8.00;8.00;;;;;;;;5050085;28;45407;-83
2024/01/18 03:51:45;;;;;;;;;13.50;11.00;;;;;;;;5046595;28;45442;-84
2024/01/18 03:54:10;;;;;;;;;13.00;10.33;;;;;;;;5049586;28;46301;-84
2024/01/18 03:56:35;;;;;;;;;8.75;8.25;;;;;;;;5027586;28;45352;-84
2024/01/18 03:59:01;;;;;;;;;8.00;8.00;;;;;;;;5021320;28;45402;-84
2024/01/18 04:01:30;;;;;;;;;9.50;9.50;;;;;;;;5029405;28;45298;-84
2024/01/18 04:03:55;;;;;;;;;8.25;7.50;;;;;;;;5048140;28;47733;-83
2024/01/18 04:06:20;;;;;;;;;8.33;8.33;;;;;;;;5029604;28;45259;-84
2024/01/18 04:08:45;;;;;;;;;9.67;9.67;;;;;;;;5047657;28;45353;-84
2024/01/18 04:11:10;;;;;;;;;9.00;8.00;;;;;;;;5054447;28;45615;-84
2024/01/18 04:13:36;;;;;;;;;9.25;9.25;;;;;;;;5041973;28;45987;-84
2024/01/18 04:16:01;;;;;;;;;8.67;8.67;;;;;;;;5052306;28;45255;-83
2024/01/18 04:18:26;;;;;;;;;6.67;6.67;;;;;;;;5020387;28;45376;-83
2024/01/18 04:20:52;;;;;;;;;9.00;6.00;;;;;;;;5036404;28;45501;-84
2024/01/18 04:23:19;;;;;;;;;9.00;9.00;;;;;;;;5062945;28;45934;-83
2024/01/18 04:25:44;;;;;;;;;7.75;6.50;;;;;;;;5039795;28;45570;-84
2024/01/18 04:28:09;;;;;;;;;12.50;9.00;;;;;;;;5037811;28;45407;-83
2024/01/18 04:30:35;;;;;;;;;9.00;5.00;;;;;;;;5045310;28;45326;-83
2024/01/18 04:33:00;;;;;;;;;11.00;8.00;;;;;;;;5027503;28;47191;-84
2024/01/18 04:35:25;;;;;;;;;11.33;9.00;;;;;;;;5044930;28;45306;-83
2024/01/18 04:37:50;;;;;;;;;2.67;2.67;;;;;;;;5044294;28;45353;-83
2024/01/18 04:40:16;;;;;;;;;6.67;6.67;;;;;;;;5044959;28;45431;-83
2024/01/18 04:42:42;;;;;;;;;8.00;7.00;;;;;;;;5045196;28;45280;-83
2024/01/18 04:45:07;;;;;;;;;9.25;8.00;;;;;;;;5045163;28;45650;-84
2024/01/18 04:47:32;;;;;;;;;6.25;5.00;;;;;;;;5026846;28;45399;-84
2024/01/18 04:49:57;;;;;;;;;8.00;7.33;;;;;;;;5045248;28;45298;-83
2024/01/18 04:52:23;;;;;;;;;4.25;3.50;;;;;;;;5044985;28;45326;-84
2024/01/18 04:54:48;;;;;;;;;9.00;9.00;;;;;;;;5027324;28;45295;-84
2024/01/18 04:57:13;;;;;;;;;5.67;5.67;;;;;;;;5045383;28;45547;-84
2024/01/18 04:59:38;;;;;;;;;9.67;8.00;;;;;;;;5043999;28;45309;-84
2024/01/18 05:02:03;;;;;;;;;13.33;12.00;;;;;;;;5027307;28;46331;-84
2024/01/18 05:04:29;;;;;;;;;16.33;12.67;;;;;;;;5044494;28;45423;-84
2024/01/18 05:06:54;;;;;;;;;17.00;13.00;;;;;;;;5033005;28;45456;-83
2024/01/18 05:09:19;;;;;;;;;12.25;11.75;;;;;;;;5043662;28;45414;-83
2024/01/18 05:11:44;;;;;;;;;14.67;12.33;;;;;;;;5026616;28;47485;-83
2024/01/18 05:14:10;;;;;;;;;17.75;12.75;;;;;;;;5031152;28;45256;-83
2024/01/18 05:16:39;;;;;;;;;16.75;13.50;;;;;;;;5051241;28;45239;-83
2024/01/18 05:19:04;;;;;;;;;12.50;12.00;;;;;;;;5025980;28;46263;-83
2024/01/18 05:21:30;;;;;;;;;14.33;12.67;;;;;;;;5051362;28;46147;-83
2024/01/18 05:23:55;;;;;;;;;25.33;16.00;;;;;;;;5057917;28;45348;-83
2024/01/18 05:26:20;;;;;;;;;19.67;15.67;;;;;;;;5051690;28;45637;-83
2024/01/18 05:28:45;;;;;;;;;19.00;15.33;;;;;;;;5035354;28;45421;-83
2024/01/18 05:31:11;;;;;;;;;19.33;18.00;;;;;;;;5048159;28;45326;-83
2024/01/18 05:33:36;;;;;;;;;20.00;15.50;;;;;;;;5039196;28;45330;-83
2024/01/18 05:36:02;;;;;;;;;24.67;21.00;;;;;;;;5055099;28;45303;-83
2024/01/18 05:38:30;;;;;;;;;19.50;18.00;;;;;;;;5022794;28;45466;-83
2024/01/18 05:40:55;;;;;;;;;22.50;18.50;;;;;;;;5041975;28;45370;-83
2024/01/18 05:43:20;;;;;;;;;21.33;21.00;;;;;;;;5047737;28;45461;-83
2024/01/18 05:45:45;;;;;;;;;29.00;23.00;;;;;;;;5057831;28;45274;-83
2024/01/18 05:48:11;;;;;;;;;23.00;22.00;;;;;;;;5023038;28;45306;-83
2024/01/18 05:50:36;;;;;;;;;25.00;20.00;;;;;;;;5036159;28;47462;-83
2024/01/18 05:53:01;;;;;;;;;25.00;16.67;;;;;;;;5023759;28;45788;-83
2024/01/18 05:55:26;;;;;;;;;28.00;24.33;;;;;;;;5045938;28;45419;-83
2024/01/18 05:57:52;;;;;;;;;32.00;26.00;;;;;;;;5023274;28;45476;-83
2024/01/18 06:00:17;;;;;;;;;35.33;29.00;;;;;;;;5050563;28;45228;-83
2024/01/18 06:02:42;;;;;;;;;29.67;22.67;;;;;;;;5039818;28;45461;-83
2024/01/18 06:05:07;;;;;;;;;27.33;24.67;;;;;;;;5023961;28;45257;-83
2024/01/18 06:07:33;;;;;;;;;33.50;27.75;;;;;;;;5040017;28;45643;-83
2024/01/18 06:09:59;;;;;;;;;35.50;28.75;;;;;;;;5047171;28;45379;-83
2024/01/18 06:12:24;;;;;;;;;32.50;30.25;;;;;;;;5022818;28;45342;-83
2024/01/18 06:14:50;;;;;;;;;32.25;30.00;;;;;;;;5024206;28;45402;-83
2024/01/18 06:17:15;;;;;;;;;28.33;25.33;;;;;;;;5040713;28;45316;-83
2024/01/18 06:19:40;;;;;;;;;28.00;22.67;;;;;;;;5021174;28;48165;-83
2024/01/18 06:22:05;;;;;;;;;31.67;27.33;;;;;;;;5051811;28;45284;-83
2024/01/18 06:24:30;;;;;;;;;31.33;29.67;;;;;;;;5060409;28;45374;-83
2024/01/18 06:26:56;;;;;;;;;36.33;26.00;;;;;;;;5048483;28;45344;-83
2024/01/18 06:29:26;;;;;;;;;43.00;32.00;;;;;;;;5021135;28;46137;-83
2024/01/18 06:31:52;;;;;;;;;28.50;25.00;;;;;;;;5031739;28;46025;-83
2024/01/18 06:34:17;;;;;;;;;26.75;23.00;;;;;;;;5037530;28;45304;-84
2024/01/18 06:36:42;;;;;;;;;37.25;31.00;;;;;;;;5041742;28;45419;-83
2024/01/18 06:39:08;;;;;;;;;31.33;29.67;;;;;;;;5057314;28;45537;-83
2024/01/18 06:41:33;;;;;;;;;28.75;27.25;;;;;;;;5030015;28;45687;-83
2024/01/18 06:43:59;;;;;;;;;32.67;29.00;;;;;;;;5036487;28;45480;-83
2024/01/18 06:46:24;;;;;;;;;22.33;16.00;;;;;;;;5059868;28;45315;-84
2024/01/18 06:48:57;;;;;;;;;29.00;26.67;;;;;;;;5036083;28;48610;-83
2024/01/18 06:51:22;;;;;;;;;37.50;33.00;;;;;;;;5044863;28;45326;-83
2024/01/18 06:53:47;;;;;;;;;29.75;28.50;;;;;;;;5039164;28;45351;-84
2024/01/18 06:56:13;;;;;;;;;35.50;31.00;;;;;;;;5052976;28;45526;-84
2024/01/18 06:58:39;;;;;;;;;33.75;29.25;;;;;;;;5038203;28;48022;-85
2024/01/18 07:01:04;;;;;;;;;27.50;25.75;;;;;;;;5045706;28;45675;-86
2024/01/18 07:03:30;;;;;;;;;31.25;30.00;;;;;;;;5039792;28;45590;-79
2024/01/18 07:05:56;;;;;;;;;28.25;28.25;;;;;;;;5035482;28;45460;-86
2024/01/18 07:08:22;;;;;;;;;37.25;30.50;;;;;;;;5026518;28;45294;-86
2024/01/18 07:10:48;;;;;;;;;34.00;27.75;;;;;;;;5037456;28;45291;-86
2024/01/18 07:13:24;;;;;;;;;32.50;28.50;;;;;;;;5027560;28;45455;-86
2024/01/18 07:15:50;;;;;;;;;31.75;29.00;;;;;;;;5054934;28;45219;-87
2024/01/18 07:18:15;;;;;;;;;36.67;33.00;;;;;;;;5039515;28;45454;-86
2024/01/18 07:20:41;;;;;;;;;34.00;29.50;;;;;;;;5039168;28;45369;-85
2024/01/18 07:23:06;;;;;;;;;34.50;29.75;;;;;;;;5034447;28;45445;-86
2024/01/18 07:25:31;;;;;;;;;35.50;31.00;;;;;;;;5053567;28;45533;-85
2024/01/18 07:27:57;;;;;;;;;30.75;28.75;;;;;;;;5052323;28;46738;-86
2024/01/18 07:30:22;;;;;;;;;52.33;43.00;;;;;;;;5040570;28;45235;-85
2024/01/18 07:32:47;;;;;;;;;39.00;33.00;;;;;;;;5029222;28;45311;-85
2024/01/18 07:35:14;;;;;;;;;34.75;31.00;;;;;;;;5040101;28;45484;-86
2024/01/18 07:37:39;;;;;;;;;31.00;30.50;;;;;;;;5026829;28;47000;-85
2024/01/18 07:40:04;;;;;;;;;36.67;30.33;;;;;;;;5038229;28;45189;-85
2024/01/18 07:42:29;;;;;;;;;44.50;37.75;;;;;;;;5047269;28;45358;-86
2024/01/18 07:44:55;;;;;;;;;38.67;32.00;;;;;;;;5034552;28;45659;-86
2024/01/18 07:47:20;;;;;;;;;41.00;35.67;;;;;;;;5034572;28;47339;-86
2024/01/18 07:49:46;;;;;;;;;40.67;33.67;;;;;;;;5048213;28;45294;-86
2024/01/18 07:52:14;;;;;;;;;45.00;39.00;;;;;;;;5037860;28;45315;-87
2024/01/18 07:54:39;;;;;;;;;41.50;36.25;;;;;;;;5027336;28;45658;-86
2024/01/18 07:57:05;;;;;;;;;38.00;32.67;;;;;;;;5045712;28;46062;-87
2024/01/18 07:59:30;;;;;;;;;40.67;40.00;;;;;;;;5039540;28;45259;-87
2024/01/18 08:01:55;;;;;;;;;43.50;38.00;;;;;;;;5020147;28;45397;-87
2024/01/18 08:04:20;;;;;;;;;48.00;38.75;;;;;;;;5041237;28;45430;-86
2024/01/18 08:06:46;;;;;;;;;41.33;35.00;;;;;;;;5033454;28;46697;-85
2024/01/18 08:09:11;;;;;;;;;36.00;34.00;;;;;;;;5034952;28;45408;-85
2024/01/18 08:11:36;;;;;;;;;41.75;38.75;;;;;;;;5030244;28;45856;-86
2024/01/18 08:14:03;;;;;;;;;53.75;44.00;;;;;;;;5049086;28;45583;-86
2024/01/18 08:16:28;;;;;;;;;40.25;36.00;;;;;;;;5044939;28;45643;-85
2024/01/18 08:18:53;;;;;;;;;43.33;39.00;;;;;;;;5037201;28;45445;-86
2024/01/18 08:21:18;;;;;;;;;45.33;40.67;;;;;;;;5019986;28;45620;-84
2024/01/18 08:23:44;;;;;;;;;42.67;36.67;;;;;;;;5012626;28;45656;-85
2024/01/18 08:26:10;;;;;;;;;39.67;29.67;;;;;;;;5036253;28;45586;-84
2024/01/18 08:28:36;;;;;;;;;48.75;41.75;;;;;;;;5038268;28;45493;-84
2024/01/18 08:31:01;;;;;;;;;37.67;33.00;;;;;;;;5019898;28;45349;-84
2024/01/18 08:33:26;;;;;;;;;50.33;43.33;;;;;;;;5034146;28;45283;-85
2024/01/18 08:35:51;;;;;;;;;35.33;30.00;;;;;;;;5035455;28;46263;-85
2024/01/18 08:38:16;;;;;;;;;45.00;41.00;;;;;;;;5022168;28;45367;-85
2024/01/18 08:40:41;;;;;;;;;51.00;39.33;;;;;;;;5048273;28;45512;-85
2024/01/18 08:43:07;;;;;;;;;45.67;39.67;;;;;;;;5030340;28;45966;-85
2024/01/18 08:45:33;;;;;;;;;48.00;41.33;;;;;;;;5035361;28;47501;-85
2024/01/18 08:47:58;;;;;;;;;36.25;32.75;;;;;;;;5035511;28;45483;-85
2024/01/18 08:50:24;;;;;;;;;40.00;37.33;;;;;;;;5054731;28;45556;-85
2024/01/18 08:52:53;;;;;;;;;45.00;38.00;;;;;;;;5022747;28;45282;-85
2024/01/18 08:55:19;;;;;;;;;42.25;41.00;;;;;;;;5049273;28;45971;-85
2024/01/18 08:57:44;;;;;;;;;50.75;43.75;;;;;;;;5037050;28;45298;-85
2024/01/18 09:00:13;;;;;;;;;44.50;40.50;;;;;;;;5047087;28;45335;-84
2024/01/18 09:02:38;;;;;;;;;46.25;39.00;;;;;;;;5017272;28;45361;-85
2024/01/18 09:05:04;;;;;;;;;51.67;41.67;;;;;;;;5033902;28;45553;-84
2024/01/18 09:07:29;;;;;;;;;48.00;41.50;;;;;;;;5016532;28;45297;-84
2024/01/18 09:09:55;;;;;;;;;44.67;39.67;;;;;;;;5019013;28;45764;-84
2024/01/18 09:12:20;;;;;;;;;43.00;41.33;;;;;;;;5039209;28;45295;-85
2024/01/18 09:14:45;;;;;;;;;47.33;41.00;;;;;;;;5045707;28;46641;-84
2024/01/18 09:17:10;;;;;;;;;45.67;41.67;;;;;;;;5026281;28;45347;-83
2024/01/18 09:19:35;;;;;;;;;40.33;39.00;;;;;;;;5045334;28;45588;-83
2024/01/18 09:22:01;;;;;;;;;56.25;44.25;;;;;;;;5022177;28;45418;-84
2024/01/18 09:24:26;;;;;;;;;53.25;44.25;;;;;;;;5025040;28;48389;-84
2024/01/18 09:26:51;;;;;;;;;50.00;44.00;;;;;;;;5023052;28;45351;-86
2024/01/18 09:29:16;;;;;;;;;51.33;41.00;;;;;;;;5039651;28;45347;-85
2024/01/18 09:31:41;;;;;;;;;47.67;38.00;;;;;;;;5026265;28;45545;-85
2024/01/18 09:34:07;;;;;;;;;35.33;34.67;;;;;;;;5041607;28;45411;-85
2024/01/18 09:36:32;;;;;;;;;44.67;41.00;;;;;;;;5038526;28;45409;-83
2024/01/18 09:38:57;;;;;;;;;57.00;44.67;;;;;;;;5023253;28;45449;-84
2024/01/18 09:41:22;;;;;;;;;40.00;37.00;;;;;;;;5021218;28;45330;-83
2024/01/18 09:43:50;;;;;;;;;52.75;42.25;;;;;;;;5025663;28;48217;-84
2024/01/18 09:46:15;;;;;;;;;49.00;40.50;;;;;;;;5021194;28;46306;-84
2024/01/18 09:48:41;;;;;;;;;56.00;44.00;;;;;;;;5038918;28;45523;-84
2024/01/18 09:51:06;;;;;;;;;51.00;39.50;;;;;;;;5050524;28;45333;-84
2024/01/18 09:53:32;;;;;;;;;36.00;35.00;;;;;;;;5022571;28;48133;-85
2024/01/18 09:56:00;;;;;;;;;55.50;44.00;;;;;;;;5014282;28;46506;-85
2024/01/18 09:58:25;;;;;;;;;45.50;38.00;;;;;;;;5036152;28;45481;-85
2024/01/18 10:00:55;;;;;;;;;57.25;45.00;;;;;;;;5039934;28;45403;-85
2024/01/18 10:03:20;;;;;;;;;59.00;44.75;;;;;;;;5028720;28;48141;-85
2024/01/18 10:05:46;;;;;;;;;55.25;46.75;;;;;;;;5038148;28;45539;-84
2024/01/18 10:08:11;;;;;;;;;53.00;44.25;;;;;;;;5031906;28;45476;-84
2024/01/18 10:10:37;;;;;;;;;44.00;40.75;;;;;;;;5037333;28;45550;-84
2024/01/18 10:13:02;;;;;;;;;51.33;41.00;;;;;;;;5033892;28;48071;-84
2024/01/18 10:15:28;;;;;;;;;52.50;44.50;;;;;;;;5050328;28;45705;-84
2024/01/18 10:17:53;;;;;;;;;37.75;36.00;;;;;;;;5050528;28;45650;-85
2024/01/18 10:20:22;;;;;;;;;43.00;40.00;;;;;;;;5040937;28;46150;-88
2024/01/18 10:22:48;;;;;;;;;55.25;45.25;;;;;;;;5029752;28;47499;-86
2024/01/18 10:25:13;;;;;;;;;52.33;44.00;;;;;;;;5054247;28;45386;-85
2024/01/18 10:27:40;;;;;;;;;49.33;42.67;;;;;;;;5021089;28;45248;-84
2024/01/18 10:30:07;;;;;;;;;48.75;43.50;;;;;;;;5034561;28;46195;-86
2024/01/18 10:32:32;;;;;;;;;48.25;42.25;;;;;;;;5034274;28;46062;-86
2024/01/18 10:34:58;;;;;;;;;60.67;47.00;;;;;;;;5046799;28;45453;-86
2024/01/18 10:37:23;;;;;;;;;43.00;40.67;;;;;;;;5029961;28;45536;-86
2024/01/18 10:39:48;;;;;;;;;52.75;42.50;;;;;;;;5044553;28;45896;-86
2024/01/18 10:42:14;;;;;;;;;31.00;30.00;;;;;;;;5018018;28;47124;-85
2024/01/18 10:45:02;;;;;;;;;45.75;40.50;;;;;;;;5029801;28;45391;-85
2024/01/18 10:47:29;;;;;;;;;48.75;39.25;;;;;;;;5021129;28;45412;-86
2024/01/18 10:49:54;;;;;;;;;43.25;40.75;;;;;;;;5037782;28;45642;-86
2024/01/18 10:52:22;;;;;;;;;54.75;42.50;;;;;;;;5030814;28;47279;-85
2024/01/18 10:54:48;;;;;;;;;50.25;42.00;;;;;;;;5034297;28;45376;-86
2024/01/18 10:57:13;;;;;;;;;56.75;46.75;;;;;;;;5021217;28;45716;-86
2024/01/18 10:59:38;;;;;;;;;48.67;40.33;;;;;;;;5040621;28;45379;-85
2024/01/18 11:02:04;;;;;;;;;51.67;44.00;;;;;;;;5034331;28;45379;-85
2024/01/18 11:04:33;;;;;;;;;48.00;41.75;;;;;;;;5018417;28;45995;-85
2024/01/18 11:06:59;;;;;;;;;53.25;44.00;;;;;;;;5021403;28;45237;-86
2024/01/18 11:09:29;;;;;;;;;41.25;34.50;;;;;;;;5030340;28;45349;-85
2024/01/18 11:11:56;;;;;;;;;48.50;42.50;;;;;;;;5047252;28;46093;-85
2024/01/18 11:14:21;;;;;;;;;58.75;41.50;;;;;;;;5041756;28;45466;-86
2024/01/18 11:16:47;;;;;;;;;54.00;42.75;;;;;;;;5035787;28;45588;-85
2024/01/18 11:19:16;;;;;;;;;38.75;37.25;;;;;;;;5019942;28;46043;-85
2024/01/18 11:21:42;;;;;;;;;49.25;40.75;;;;;;;;5036401;28;46684;-86
2024/01/18 11:24:08;;;;;;;;;45.25;40.00;;;;;;;;5021892;28;45627;-86
2024/01/18 11:26:33;;;;;;;;;46.00;38.25;;;;;;;;5019752;28;45460;-85
2024/01/18 11:29:14;;;;;;;;;29.00;26.00;;;;;;;;5033873;28;45469;-86
2024/01/18 11:31:50;;;;;;;;;43.75;37.00;;;;;;;;5030928;28;46952;-87
2024/01/18 11:34:37;;;;;;;;;46.00;38.25;;;;;;;;5034517;28;45354;-86
2024/01/18 11:37:12;;;;;;;;;40.00;36.00;;;;;;;;5019379;28;45425;-86
2024/01/18 11:39:46;;;;;;;;;38.50;37.50;;;;;;;;5014845;28;45688;-87
2024/01/18 11:42:14;;;;;;;;;40.50;34.75;;;;;;;;5034495;28;48060;-86
2024/01/18 11:44:48;;;;;;;;;39.25;38.00;;;;;;;;5058822;28;45463;-87
2024/01/18 11:47:13;;;;;;;;;39.00;38.00;;;;;;;;5041020;28;45429;-87
2024/01/18 11:49:38;;;;;;;;;51.33;43.33;;;;;;;;5031685;28;46275;-86
2024/01/18 11:52:04;;;;;;;;;45.67;40.33;;;;;;;;5040439;28;45625;-83
2024/01/18 11:54:29;;;;;;;;;41.50;38.50;;;;;;;;5034856;28;45326;-88
2024/01/18 11:56:55;;;;;;;;;48.75;42.50;;;;;;;;5034104;28;45521;-88
2024/01/18 11:59:21;;;;;;;;;46.25;40.00;;;;;;;;5037910;28;45410;-87
2024/01/18 12:01:46;;;;;;;;;48.00;41.50;;;;;;;;5041586;28;45989;-90
2024/01/18 12:04:11;;;;;;;;;48.00;41.33;;;;;;;;5027309;28;45331;-82
2024/01/18 12:06:36;;;;;;;;;45.33;41.67;;;;;;;;5050727;28;45643;-88
2024/01/18 12:09:03;;;;;;;;;41.33;39.00;;;;;;;;5049598;28;45576;-80
2024/01/18 12:11:28;;;;;;;;;46.75;38.50;;;;;;;;5021632;28;47281;-81
2024/01/18 12:13:53;;;;;;;;;48.67;41.33;;;;;;;;5037599;28;45356;-81
2024/01/18 12:16:20;;;;;;;;;44.67;39.00;;;;;;;;5018534;28;45483;-80
2024/01/18 12:18:45;;;;;;;;;43.75;37.50;;;;;;;;5017181;28;45380;-81
2024/01/18 12:21:11;;;;;;;;;42.67;39.67;;;;;;;;5033271;28;46119;-79
2024/01/18 12:23:36;;;;;;;;;46.00;39.67;;;;;;;;5037164;28;45391;-80
2024/01/18 12:26:01;;;;;;;;;43.67;37.67;;;;;;;;5025655;28;45397;-80
2024/01/18 12:28:27;;;;;;;;;32.25;31.75;;;;;;;;5043793;28;45311;-80
2024/01/18 12:30:53;;;;;;;;;43.00;38.25;;;;;;;;5036033;28;45330;-80
2024/01/18 12:33:18;;;;;;;;;43.50;41.50;;;;;;;;5037491;28;45512;-80
2024/01/18 12:35:46;;;;;;;;;49.33;41.33;;;;;;;;5024159;28;45378;-80
2024/01/18 12:38:11;;;;;;;;;45.25;38.75;;;;;;;;5042908;28;45218;-80
2024/01/18 12:40:36;;;;;;;;;49.25;41.25;;;;;;;;5053055;28;45286;-80
2024/01/18 12:43:02;;;;;;;;;38.33;36.33;;;;;;;;5050317;28;45283;-80
2024/01/18 12:45:27;;;;;;;;;43.50;39.25;;;;;;;;5025211;28;45248;-86
2024/01/18 12:47:52;;;;;;;;;43.33;37.67;;;;;;;;5032036;28;45437;-84
2024/01/18 12:50:18;;;;;;;;;41.67;38.00;;;;;;;;5039482;28;45430;-85
2024/01/18 12:52:43;;;;;;;;;37.75;36.75;;;;;;;;5037960;28;45761;-84
2024/01/18 12:55:08;;;;;;;;;38.75;33.25;;;;;;;;5032971;28;45469;-81
2024/01/18 12:57:34;;;;;;;;;40.25;30.25;;;;;;;;5040341;28;45475;-85
2024/01/18 13:00:03;;;;;;;;;34.75;30.25;;;;;;;;5024779;28;47399;-85
2024/01/18 13:02:29;;;;;;;;;41.25;35.25;;;;;;;;5025844;28;45754;-84
2024/01/18 13:04:56;;;;;;;;;27.75;23.25;;;;;;;;5039658;28;45343;-84
2024/01/18 13:07:22;;;;;;;;;35.25;28.50;;;;;;;;5021412;28;45583;-84
2024/01/18 13:09:47;;;;;;;;;29.50;27.25;;;;;;;;5039239;28;46249;-81
2024/01/18 13:12:13;;;;;;;;;31.00;27.00;;;;;;;;5042452;28;45211;-82
2024/01/18 13:14:39;;;;;;;;;29.25;26.75;;;;;;;;5054582;28;45569;-82
2024/01/18 13:17:04;;;;;;;;;30.33;25.33;;;;;;;;5048619;28;45570;-82
2024/01/18 13:19:29;;;;;;;;;31.25;26.25;;;;;;;;5027944;28;45442;-78
2024/01/18 13:21:54;;;;;;;;;28.00;24.33;;;;;;;;5034475;28;45407;-79
2024/01/18 13:24:20;;;;;;;;;30.67;28.33;;;;;;;;5037814;28;45770;-79
2024/01/18 13:26:47;;;;;;;;;26.25;24.50;;;;;;;;5019607;28;46269;-80
2024/01/18 13:29:12;;;;;;;;;26.50;25.50;;;;;;;;5038232;28;45516;-79
2024/01/18 13:31:38;;;;;;;;;33.67;32.00;;;;;;;;5055964;28;45359;-79
2024/01/18 13:34:03;;;;;;;;;27.50;25.25;;;;;;;;5050053;28;45493;-79
2024/01/18 13:36:29;;;;;;;;;27.00;25.75;;;;;;;;5019038;28;45592;-80
2024/01/18 13:38:54;;;;;;;;;31.75;28.50;;;;;;;;5034673;28;45444;-80
2024/01/18 13:41:20;;;;;;;;;31.00;27.75;;;;;;;;5035304;28;45932;-79
2024/01/18 13:43:45;;;;;;;;;31.33;27.67;;;;;;;;5037925;28;45326;-79
2024/01/18 13:46:10;;;;;;;;;31.00;29.50;;;;;;;;5019403;28;45550;-79
2024/01/18 13:48:35;;;;;;;;;32.00;28.33;;;;;;;;5039946;28;45969;-78
2024/01/18 13:51:01;;;;;;;;;29.00;26.00;;;;;;;;5034579;28;45635;-79
2024/01/18 13:53:27;;;;;;;;;32.75;28.25;;;;;;;;5020286;28;45395;-80
2024/01/18 13:55:53;;;;;;;;;39.25;36.00;;;;;;;;5017635;28;45942;-79
2024/01/18 13:58:19;;;;;;;;;27.75;26.00;;;;;;;;5020739;28;48055;-81
2024/01/18 14:00:44;;;;;;;;;30.50;23.25;;;;;;;;5037635;28;45622;-78
2024/01/18 14:03:10;;;;;;;;;32.67;27.67;;;;;;;;5039458;28;45641;-79
2024/01/18 14:05:38;;;;;;;;;31.25;29.50;;;;;;;;5035880;28;45516;-80
2024/01/18 14:08:04;;;;;;;;;31.25;28.00;;;;;;;;5024295;28;48353;-88
2024/01/18 14:10:34;;;;;;;;;23.25;23.00;;;;;;;;5032366;28;45570;-88